Time;durP1;ratioP1;P1;durP2;ratioP2;P2;SDS_P1;SDS_P2;PMS_P1;PMS_P2;Temp;Humidity;BMP_temperature;BMP_pressure;BME280_temperature;BME280_humidity;BME280_pressure;Samples;Min_cycle;Max_cycle;Signal;HPM_P1;HPM_P2
2023/09/12 00:09:55;;;;;;;16.6;13.3;;;;;;;17.04;88.6;;;;;
2023/09/12 00:19:55;;;;;;;16.6;13.3;;;;;;;16.89;88.39;;;;;
2023/09/12 00:29:55;;;;;;;16.6;13.3;;;;;;;16.77;89.25;;;;;
2023/09/12 00:40:55;;;;;;;18.5;14.2;;;;;;;16.69;90;;;;;
2023/09/12 00:51:55;;;;;;;18.5;14.2;;;;;;;16.64;90.85;;;;;
2023/09/12 01:01:56;;;;;;;18.5;14.2;;;;;;;16.57;90.55;;;;;
2023/09/12 01:12:55;;;;;;;22.9;15.3;;;;;;;16.5;90.22;;;;;
2023/09/12 01:23:55;;;;;;;22.9;15.3;;;;;;;16.56;90.36;;;;;
2023/09/12 01:33:55;;;;;;;22.9;15.3;;;;;;;16.58;90.18;;;;;
2023/09/12 01:43:55;;;;;;;17.3;13.2;;;;;;;16.61;90.1;;;;;
2023/09/12 01:54:55;;;;;;;17.3;13.2;;;;;;;16.47;90.23;;;;;
2023/09/12 02:05:55;;;;;;;17.3;13.2;;;;;;;16.41;90.31;;;;;
2023/09/12 02:16:55;;;;;;;15.6;12.9;;;;;;;16.37;90.12;;;;;
2023/09/12 02:27:55;;;;;;;15.6;12.9;;;;;;;16.21;89.82;;;;;
2023/09/12 02:38:55;;;;;;;16.5;13.8;;;;;;;16.07;89.49;;;;;
2023/09/12 02:48:57;;;;;;;16.5;13.8;;;;;;;15.95;89.5;;;;;
2023/09/12 02:59:56;;;;;;;16.5;13.8;;;;;;;15.8;90.09;;;;;
2023/09/12 03:10:56;;;;;;;16.2;12.7;;;;;;;15.71;90.36;;;;;
2023/09/12 03:20:56;;;;;;;16.2;12.7;;;;;;;15.7;90.52;;;;;
2023/09/12 03:31:56;;;;;;;16.2;12.7;;;;;;;15.64;91.78;;;;;
2023/09/12 03:42:56;;;;;;;14.9;12.6;;;;;;;15.54;91.42;;;;;
2023/09/12 03:53:56;;;;;;;14.9;12.6;;;;;;;15.39;91.45;;;;;
2023/09/12 04:03:56;;;;;;;14.9;12.6;;;;;;;15.33;91.31;;;;;
2023/09/12 04:13:56;;;;;;;14.2;12.6;;;;;;;15.32;91.12;;;;;
2023/09/12 04:24:56;;;;;;;14.2;12.6;;;;;;;15.29;91.26;;;;;
2023/09/12 04:34:56;;;;;;;14.2;12.6;;;;;;;15.31;91.63;;;;;
2023/09/12 04:45:56;;;;;;;15.8;12.4;;;;;;;15.37;91.7;;;;;
2023/09/12 04:56:56;;;;;;;15.8;12.4;;;;;;;15.58;91.82;;;;;
2023/09/12 05:06:56;;;;;;;15.8;12.4;;;;;;;15.7;91.35;;;;;
2023/09/12 05:17:56;;;;;;;17.9;12.4;;;;;;;16.18;92.04;;;;;
2023/09/12 05:28:56;;;;;;;17.9;12.4;;;;;;;16.68;91.51;;;;;
2023/09/12 05:38:56;;;;;;;15.9;12.8;;;;;;;17.13;90.9;;;;;
2023/09/12 05:48:56;;;;;;;15.9;12.8;;;;;;;17.55;90;;;;;
2023/09/12 05:58:56;;;;;;;15.9;12.8;;;;;;;17.96;88.97;;;;;
2023/09/12 06:09:56;;;;;;;17.5;13.1;;;;;;;18.71;88.09;;;;;
2023/09/12 06:20:56;;;;;;;17.5;13.1;;;;;;;19.55;86.48;;;;;
2023/09/12 06:31:57;;;;;;;17.5;13.1;;;;;;;20.34;84.59;;;;;
2023/09/12 06:42:56;;;;;;;16.5;12.5;;;;;;;20.84;82.19;;;;;
2023/09/12 06:52:56;;;;;;;16.5;12.5;;;;;;;21.53;79.9;;;;;
2023/09/12 07:02:56;;;;;;;16.5;12.5;;;;;;;21.99;79.22;;;;;
2023/09/12 07:13:56;;;;;;;12.7;9.7;;;;;;;22.38;76.73;;;;;
2023/09/12 07:23:56;;;;;;;12.7;9.7;;;;;;;22.83;75.05;;;;;
2023/09/12 07:34:56;;;;;;;12.7;9.7;;;;;;;23.29;75.18;;;;;
2023/09/12 07:45:57;;;;;;;12.6;9.1;;;;;;;23.57;73.55;;;;;
2023/09/12 07:55:56;;;;;;;12.6;9.1;;;;;;;23.71;74.55;;;;;
2023/09/12 08:06:56;;;;;;;12.6;9.1;;;;;;;23.96;71.92;;;;;
2023/09/12 08:17:56;;;;;;;11.5;8.7;;;;;;;24.1;71.36;;;;;
2023/09/12 08:28:56;;;;;;;11.5;8.7;;;;;;;24.31;70.62;;;;;
2023/09/12 08:39:58;;;;;;;11.1;9.1;;;;;;;24.67;68.75;;;;;
2023/09/12 08:49:57;;;;;;;11.1;9.1;;;;;;;25.03;67.07;;;;;
2023/09/12 09:00:56;;;;;;;11.1;9.1;;;;;;;25.37;64.08;;;;;
2023/09/12 09:11:56;;;;;;;10.3;8.3;;;;;;;25.67;63.17;;;;;
2023/09/12 09:21:56;;;;;;;10.3;8.3;;;;;;;25.89;63.78;;;;;
2023/09/12 09:32:57;;;;;;;10.3;8.3;;;;;;;26.14;63.02;;;;;
2023/09/12 09:43:56;;;;;;;11.5;8.3;;;;;;;26.71;64.05;;;;;
2023/09/12 09:53:58;;;;;;;11.5;8.3;;;;;;;26.56;61.75;;;;;
2023/09/12 10:04:56;;;;;;;11.5;8.3;;;;;;;27.1;62.08;;;;;
2023/09/12 10:15:56;;;;;;;11.6;8.4;;;;;;;27.44;59.92;;;;;
2023/09/12 10:25:56;;;;;;;11.6;8.4;;;;;;;27.55;57.91;;;;;
2023/09/12 10:36:56;;;;;;;11.6;8.4;;;;;;;27.85;54.86;;;;;
2023/09/12 10:47:56;;;;;;;11;7.8;;;;;;;27.83;54.83;;;;;
2023/09/12 10:57:56;;;;;;;11;7.8;;;;;;;28.33;53.74;;;;;
2023/09/12 11:07:56;;;;;;;11;7.8;;;;;;;28.56;54.11;;;;;
2023/09/12 11:17:56;;;;;;;9.4;6.3;;;;;;;28.64;53.04;;;;;
2023/09/12 11:28:56;;;;;;;9.4;6.3;;;;;;;28.92;49.9;;;;;
2023/09/12 11:38:56;;;;;;;9.2;7;;;;;;;28.96;50.29;;;;;
2023/09/12 11:48:56;;;;;;;9.2;7;;;;;;;28.87;48.83;;;;;
2023/09/12 11:59:56;;;;;;;9.2;7;;;;;;;29.13;49.49;;;;;
2023/09/12 12:09:57;;;;;;;11.5;7.2;;;;;;;29.12;48.78;;;;;
2023/09/12 12:20:56;;;;;;;11.5;7.2;;;;;;;29.38;48.4;;;;;
2023/09/12 12:30:57;;;;;;;11.5;7.2;;;;;;;29.45;47.73;;;;;
2023/09/12 12:41:56;;;;;;;9.5;6.9;;;;;;;29.57;47.59;;;;;
2023/09/12 12:52:56;;;;;;;9.5;6.9;;;;;;;29.53;44.58;;;;;
2023/09/12 13:03:56;;;;;;;9.5;6.9;;;;;;;29.63;46.91;;;;;
2023/09/12 13:13:56;;;;;;;10;6.7;;;;;;;29.75;48.97;;;;;
2023/09/12 13:24:56;;;;;;;10;6.7;;;;;;;29.74;44.98;;;;;
2023/09/12 13:34:56;;;;;;;10;6.7;;;;;;;29.68;44.64;;;;;
2023/09/12 13:45:56;;;;;;;11.1;6.4;;;;;;;29.96;45.55;;;;;
2023/09/12 13:55:58;;;;;;;11.1;6.4;;;;;;;29.6;43.88;;;;;
2023/09/12 14:06:56;;;;;;;11.1;6.4;;;;;;;29.49;45.16;;;;;
2023/09/12 14:16:57;;;;;;;9.4;6.7;;;;;;;29.54;44.5;;;;;
2023/09/12 14:27:56;;;;;;;9.4;6.7;;;;;;;29.82;44.42;;;;;
2023/09/12 14:37:58;;;;;;;9.4;6.7;;;;;;;29.91;44.56;;;;;
2023/09/12 14:47:57;;;;;;;13.9;6.9;;;;;;;29.63;45.55;;;;;
2023/09/12 14:57:58;;;;;;;13.9;6.9;;;;;;;29.31;46.17;;;;;
2023/09/12 15:08:56;;;;;;;13.9;6.9;;;;;;;30.09;45.81;;;;;
2023/09/12 15:18:56;;;;;;;11.1;7.5;;;;;;;31.84;40.79;;;;;
2023/09/12 15:29:56;;;;;;;11.1;7.5;;;;;;;33.11;39.24;;;;;
2023/09/12 15:39:56;;;;;;;10.3;7;;;;;;;33.27;38.2;;;;;
2023/09/12 15:50:57;;;;;;;10.3;7;;;;;;;33.63;38.91;;;;;
2023/09/12 16:01:56;;;;;;;10.3;7;;;;;;;33.73;42.05;;;;;
2023/09/12 16:11:56;;;;;;;9.9;6.4;;;;;;;32.56;46.37;;;;;
2023/09/12 16:21:57;;;;;;;9.9;6.4;;;;;;;31.91;44.62;;;;;
2023/09/12 16:31:57;;;;;;;9.9;6.4;;;;;;;29.96;49.22;;;;;
2023/09/12 16:41:57;;;;;;;13.2;7.8;;;;;;;28.2;53.5;;;;;
2023/09/12 16:52:57;;;;;;;13.2;7.8;;;;;;;26.83;58.38;;;;;
2023/09/12 17:03:57;;;;;;;13.2;7.8;;;;;;;25.5;63.05;;;;;
2023/09/12 17:14:56;;;;;;;17.7;11.9;;;;;;;24.49;65.77;;;;;
2023/09/12 17:24:58;;;;;;;17.7;11.9;;;;;;;23.74;68.37;;;;;
2023/09/12 17:34:59;;;;;;;17.7;11.9;;;;;;;23.04;70.32;;;;;
2023/09/12 17:44:56;;;;;;;15.5;11.7;;;;;;;22.38;70.4;;;;;
2023/09/12 17:54:57;;;;;;;15.5;11.7;;;;;;;21.91;70.53;;;;;
2023/09/12 18:05:57;;;;;;;15.5;11.7;;;;;;;21.48;71.46;;;;;
2023/09/12 18:16:57;;;;;;;18.8;14.1;;;;;;;21.12;73.51;;;;;
2023/09/12 18:26:57;;;;;;;18.8;14.1;;;;;;;20.94;74.69;;;;;
2023/09/12 18:36:57;;;;;;;18.8;14.1;;;;;;;20.75;74.99;;;;;
2023/09/12 18:47:56;;;;;;;25.2;20;;;;;;;20.53;75.5;;;;;
2023/09/12 18:57:57;;;;;;;25.2;20;;;;;;;20.28;76.02;;;;;
2023/09/12 19:07:57;;;;;;;25.2;20;;;;;;;20.13;77.82;;;;;
2023/09/12 19:18:57;;;;;;;19;13.8;;;;;;;19.86;78.98;;;;;
2023/09/12 19:28:57;;;;;;;19;13.8;;;;;;;19.7;79.66;;;;;
2023/09/12 19:39:01;;;;;;;19;13.8;;;;;;;19.5;80.38;;;;;
2023/09/12 19:48:57;;;;;;;18.3;15.9;;;;;;;19.33;80.91;;;;;
2023/09/12 19:58:57;;;;;;;18.3;15.9;;;;;;;19.19;81.77;;;;;
2023/09/12 20:09:57;;;;;;;18.3;15.9;;;;;;;19.05;83.37;;;;;
2023/09/12 20:20:58;;;;;;;21.2;18.5;;;;;;;18.92;83.76;;;;;
2023/09/12 20:30:57;;;;;;;21.2;18.5;;;;;;;18.8;84.37;;;;;
2023/09/12 20:40:57;;;;;;;22.5;19.7;;;;;;;18.63;87.38;;;;;
2023/09/12 20:51:57;;;;;;;22.5;19.7;;;;;;;18.62;85.91;;;;;
2023/09/12 21:02:57;;;;;;;22.5;19.7;;;;;;;18.5;87.13;;;;;
2023/09/12 21:13:57;;;;;;;24;20.1;;;;;;;18.38;87.16;;;;;
2023/09/12 21:23:57;;;;;;;24;20.1;;;;;;;18.26;86.96;;;;;
2023/09/12 21:34:57;;;;;;;24;20.1;;;;;;;18.22;86.66;;;;;
2023/09/12 21:44:57;;;;;;;21.9;19;;;;;;;18.11;86.95;;;;;
2023/09/12 21:55:57;;;;;;;21.9;19;;;;;;;18.05;87.11;;;;;
2023/09/12 22:06:57;;;;;;;21.9;19;;;;;;;17.92;87.11;;;;;
2023/09/12 22:16:57;;;;;;;26;20.3;;;;;;;17.79;87.21;;;;;
2023/09/12 22:27:57;;;;;;;26;20.3;;;;;;;17.71;87.6;;;;;
2023/09/12 22:37:58;;;;;;;26;20.3;;;;;;;17.6;89.4;;;;;
2023/09/12 22:47:58;;;;;;;27;18.7;;;;;;;17.53;88.36;;;;;
2023/09/12 22:58:57;;;;;;;27;18.7;;;;;;;17.41;88.95;;;;;
2023/09/12 23:08:57;;;;;;;27;18.7;;;;;;;17.33;88.86;;;;;
2023/09/12 23:18:57;;;;;;;22.6;18.5;;;;;;;17.27;89.17;;;;;
2023/09/12 23:29:57;;;;;;;22.6;18.5;;;;;;;17.13;88.89;;;;;
2023/09/12 23:39:57;;;;;;;22.6;18.5;;;;;;;17.09;88.49;;;;;
2023/09/12 23:49:57;;;;;;;23.3;18.1;;;;;;;17.02;88.94;;;;;
2023/09/12 23:59:57;;;;;;;23.3;18.1;;;;;;;16.97;88.54;;;;;
